Time;durP1;ratioP1;P1;durP2;ratioP2;P2;SDS_P1;SDS_P2;PMS_P1;PMS_P2;Temp;Humidity;BMP_temperature;BMP_pressure;BME280_temperature;BME280_humidity;BME280_pressure;Samples;Min_cycle;Max_cycle;Signal;HPM_P1;HPM_P2
2021/12/28 00:01:01;;;;;;;27.17;13.53;;;;;;;-0.25;100.00;97813.06;4955102;28;20346;-59
2021/12/28 00:03:27;;;;;;;19.20;10.93;;;;;;;-0.23;100.00;97811.44;4969888;28;20035;-59
2021/12/28 00:05:52;;;;;;;21.30;12.47;;;;;;;-0.25;100.00;97803.00;4968855;28;20595;-60
2021/12/28 00:08:19;;;;;;;22.57;12.80;;;;;;;-0.29;100.00;97805.47;4968398;28;20397;-61
2021/12/28 00:10:45;;;;;;;23.43;13.10;;;;;;;-0.26;100.00;97808.91;4973600;28;20488;-61
2021/12/28 00:13:11;;;;;;;23.87;13.03;;;;;;;-0.19;100.00;97808.13;4971120;28;20026;-59
2021/12/28 00:18:22;;;;;;;;;;;;;;;-0.05;100.00;97809.09;4957079;28;20039;-61
2021/12/28 00:20:52;;;;;;;33.57;15.03;;;;;;;-0.10;100.00;97798.13;4971806;28;19922;-59
2021/12/28 00:23:25;;;;;;;28.43;13.77;;;;;;;-0.05;100.00;97809.09;4968808;28;20864;-59
2021/12/28 00:25:52;;;;;;;30.17;14.60;;;;;;;-0.01;100.00;97808.31;4967109;28;20089;-59
2021/12/28 00:28:19;;;;;;;41.03;18.17;;;;;;;-0.01;100.00;97805.78;4970940;28;20038;-61
2021/12/28 00:30:47;;;;;;;62.40;26.70;;;;;;;0.03;100.00;97806.66;4972237;28;20038;-60
2021/12/28 00:33:13;;;;;;;65.67;29.07;;;;;;;0.04;100.00;97808.34;4967030;28;20428;-61
2021/12/28 00:35:40;;;;;;;32.10;16.63;;;;;;;0.05;100.00;97804.97;4968227;28;20023;-60
2021/12/28 00:38:07;;;;;;;29.67;14.60;;;;;;;0.08;100.00;97806.69;4986356;28;20045;-61
2021/12/28 00:40:34;;;;;;;37.10;16.97;;;;;;;0.14;100.00;97814.28;4970212;28;20043;-61
2021/12/28 00:43:00;;;;;;;44.97;21.10;;;;;;;0.18;100.00;97821.03;4968520;28;20066;-61
2021/12/28 00:45:26;;;;;;;29.97;15.90;;;;;;;0.10;100.00;97813.41;4970752;28;20485;-60
2021/12/28 00:47:52;;;;;;;22.50;13.17;;;;;;;0.17;100.00;97822.72;4970548;28;20117;-60
2021/12/28 00:50:18;;;;;;;21.13;12.13;;;;;;;0.13;100.00;97822.69;4970060;28;20370;-59
2021/12/28 00:52:45;;;;;;;25.57;13.77;;;;;;;0.11;100.00;97827.72;4967709;28;20038;-59
2021/12/28 00:55:12;;;;;;;21.53;13.23;;;;;;;0.14;100.00;97829.41;4970827;28;20038;-58
2021/12/28 00:57:37;;;;;;;24.00;13.00;;;;;;;0.09;100.00;97826.84;4973749;28;20508;-58
2021/12/28 01:00:07;;;;;;;22.17;12.77;;;;;;;0.12;100.00;97826.88;4969045;28;20046;-59
2021/12/28 01:02:32;;;;;;;24.47;12.67;;;;;;;0.08;100.00;97831.88;4967608;28;20541;-58
2021/12/28 01:04:58;;;;;;;25.10;13.47;;;;;;;0.07;100.00;97836.06;4969846;28;20395;-60
2021/12/28 01:07:23;;;;;;;28.13;13.00;;;;;;;0.06;100.00;97836.06;4971640;28;20027;-57
2021/12/28 01:09:49;;;;;;;23.23;13.60;;;;;;;0.07;100.00;97846.16;4969943;28;20062;-61
2021/12/28 01:12:14;;;;;;;26.90;13.77;;;;;;;0.05;100.00;97852.00;4984205;28;20030;-57
2021/12/28 01:14:41;;;;;;;25.90;13.23;;;;;;;0.03;100.00;97843.59;4971444;28;20035;-59
2021/12/28 01:17:06;;;;;;;24.03;11.67;;;;;;;0.04;100.00;97842.75;4970503;28;20036;-59
2021/12/28 01:19:32;;;;;;;24.73;13.43;;;;;;;0.09;100.00;97851.19;4983597;28;20042;-59
2021/12/28 01:22:01;;;;;;;24.43;13.23;;;;;;;0.14;100.00;97849.56;4967718;28;20100;-59
2021/12/28 01:24:27;;;;;;;22.70;13.07;;;;;;;0.11;100.00;97859.63;4971892;28;20026;-61
2021/12/28 01:26:52;;;;;;;24.23;13.00;;;;;;;0.12;100.00;97852.09;4970287;28;20470;-60
2021/12/28 01:29:17;;;;;;;25.83;13.23;;;;;;;0.18;100.00;97862.22;4968388;28;20039;-60
2021/12/28 01:31:43;;;;;;;35.73;18.23;;;;;;;0.12;100.00;97851.25;4967447;28;20113;-58
2021/12/28 01:34:09;;;;;;;25.93;13.60;;;;;;;0.16;100.00;97860.50;4971680;28;20478;-59
2021/12/28 01:36:34;;;;;;;22.33;13.57;;;;;;;0.16;100.00;97851.28;4976731;28;20027;-60
2021/12/28 01:39:04;;;;;;;21.23;11.87;;;;;;;0.19;100.00;97861.38;4972023;28;20034;-60
2021/12/28 01:41:30;;;;;;;21.73;12.67;;;;;;;0.18;100.00;97861.34;4972206;28;20454;-60
2021/12/28 01:43:59;;;;;;;21.00;12.07;;;;;;;0.17;100.00;97857.19;4973173;28;20045;-60
2021/12/28 01:46:25;;;;;;;24.83;12.60;;;;;;;0.23;100.00;97863.09;4971189;28;20046;-60
2021/12/28 01:48:50;;;;;;;21.30;12.13;;;;;;;0.24;100.00;97858.91;4972157;28;20027;-58
2021/12/28 01:51:22;;;;;;;20.97;12.80;;;;;;;0.21;100.00;97861.41;4971078;28;20437;-59
2021/12/28 01:53:51;;;;;;;21.37;12.13;;;;;;;0.23;100.00;97874.84;4971268;28;20302;-58
2021/12/28 01:56:24;;;;;;;20.60;12.07;;;;;;;0.33;100.00;97874.97;4970870;28;20033;-59
2021/12/28 01:58:50;;;;;;;22.53;11.77;;;;;;;0.34;100.00;97871.59;4970139;28;20042;-58
2021/12/28 02:01:16;;;;;;;20.10;11.70;;;;;;;0.26;100.00;97872.34;4974688;28;20026;-59
2021/12/28 02:03:44;;;;;;;24.20;12.40;;;;;;;0.20;100.00;97864.75;4976739;28;20042;-60
2021/12/28 02:06:10;;;;;;;21.90;12.13;;;;;;;0.22;100.00;97878.19;4974438;28;20546;-60
2021/12/28 02:08:37;;;;;;;23.87;14.73;;;;;;;0.20;100.00;97874.84;4970872;28;20098;-60
2021/12/28 02:11:04;;;;;;;31.80;15.87;;;;;;;0.25;100.00;97885.81;4972914;28;20038;-59
2021/12/28 02:13:29;;;;;;;24.00;12.53;;;;;;;0.28;100.00;97889.19;4962411;28;20031;-59
2021/12/28 02:15:57;;;;;;;22.13;12.90;;;;;;;0.32;100.00;97892.59;4971844;28;20477;-58
2021/12/28 02:18:24;;;;;;;23.17;12.17;;;;;;;0.39;100.00;97891.81;4969320;28;20042;-59
2021/12/28 02:20:51;;;;;;;20.57;13.07;;;;;;;0.40;100.00;97896.03;4972585;28;20092;-60
2021/12/28 02:23:17;;;;;;;21.97;13.37;;;;;;;0.38;100.00;97885.09;4972727;28;20031;-59
2021/12/28 02:25:44;;;;;;;20.53;13.43;;;;;;;0.37;100.00;97885.91;4966934;28;20871;-58
2021/12/28 02:28:11;;;;;;;21.37;13.73;;;;;;;0.32;100.00;97869.91;4966010;28;20148;-59
2021/12/28 02:30:39;;;;;;;25.63;14.13;;;;;;;0.44;100.00;97867.47;4975012;28;20058;-60
2021/12/28 02:33:05;;;;;;;21.73;12.73;;;;;;;0.43;100.00;97856.53;4952894;28;20093;-60
2021/12/28 02:35:32;;;;;;;28.50;13.10;;;;;;;0.39;100.00;97854.84;4967396;28;20026;-60
2021/12/28 02:37:57;;;;;;;22.37;13.17;;;;;;;0.47;100.00;97862.47;4969782;28;20034;-60
2021/12/28 02:40:25;;;;;;;24.43;13.10;;;;;;;0.52;100.00;97855.78;4975697;28;20030;-59
2021/12/28 02:42:51;;;;;;;22.80;13.83;;;;;;;0.53;100.00;97852.44;4970422;28;20041;-60
2021/12/28 02:45:26;;;;;;;30.53;15.50;;;;;;;0.58;100.00;97850.78;4967491;28;20027;-59
2021/12/28 02:47:52;;;;;;;29.35;14.68;;;;;;;0.52;100.00;97848.22;4972114;28;20033;-60
2021/12/28 02:50:32;;;;;;;24.47;13.20;;;;;;;0.59;100.00;97852.50;4972471;28;20046;-60
2021/12/28 02:52:58;;;;;;;18.70;12.23;;;;;;;0.57;100.00;97848.25;4971240;28;20122;-59
2021/12/28 02:55:27;;;;;;;23.80;13.13;;;;;;;0.63;100.00;97840.75;4967231;28;20030;-59
2021/12/28 02:57:56;;;;;;;22.80;12.20;;;;;;;0.63;100.00;97839.06;4988245;28;20485;-60
2021/12/28 03:00:30;;;;;;;20.73;12.47;;;;;;;0.67;100.00;97837.41;4970012;28;20117;-58
2021/12/28 03:02:56;;;;;;;25.33;14.73;;;;;;;0.62;100.00;97829.81;4968973;28;20042;-59
2021/12/28 03:05:22;;;;;;;25.60;14.87;;;;;;;0.63;100.00;97831.50;4967849;28;20097;-56
2021/12/28 03:07:48;;;;;;;27.27;15.60;;;;;;;0.63;100.00;97836.56;4969737;28;20026;-58
2021/12/28 03:10:14;;;;;;;31.73;18.13;;;;;;;0.55;100.00;97834.81;4969735;28;20055;-57
2021/12/28 03:12:39;;;;;;;30.43;17.70;;;;;;;0.52;100.00;97837.28;4970151;28;20026;-59
2021/12/28 03:15:05;;;;;;;29.30;17.43;;;;;;;0.52;100.00;97840.66;4968120;28;20100;-57
2021/12/28 03:17:30;;;;;;;33.97;18.73;;;;;;;0.54;100.00;97835.63;4972289;28;20039;-58
2021/12/28 03:19:56;;;;;;;28.23;16.33;;;;;;;0.60;100.00;97826.41;4973516;28;20035;-60
2021/12/28 03:22:21;;;;;;;32.87;17.50;;;;;;;0.63;100.00;97831.50;4969693;28;20335;-58
2021/12/28 03:24:47;;;;;;;28.97;17.27;;;;;;;0.62;100.00;97823.91;4970900;28;20056;-60
2021/12/28 03:27:12;;;;;;;29.53;16.13;;;;;;;0.63;100.00;97823.09;4972021;28;20145;-58
2021/12/28 03:29:38;;;;;;;25.47;15.20;;;;;;;0.69;100.00;97823.13;4956160;28;20042;-59
2021/12/28 03:32:03;;;;;;;25.80;14.17;;;;;;;0.71;100.00;97834.06;4974260;28;20038;-60
2021/12/28 03:34:29;;;;;;;27.23;16.27;;;;;;;0.67;100.00;97835.72;4968021;28;20413;-58
2021/12/28 03:36:54;;;;;;;28.77;16.40;;;;;;;0.67;100.00;97837.41;4974018;28;20027;-59
2021/12/28 03:39:19;;;;;;;26.83;14.60;;;;;;;0.66;100.00;97839.09;4975528;28;20035;-59
2021/12/28 03:41:45;;;;;;;30.37;15.83;;;;;;;0.65;100.00;97832.34;4970897;28;20035;-58
2021/12/28 03:44:11;;;;;;;35.43;17.10;;;;;;;0.64;100.00;97833.16;4972295;28;20144;-58
2021/12/28 03:46:36;;;;;;;23.60;14.00;;;;;;;0.70;100.00;97830.69;4975581;28;20022;-58
2021/12/28 03:49:02;;;;;;;23.50;14.10;;;;;;;0.71;100.00;97826.50;4977698;28;20108;-58
2021/12/28 03:51:28;;;;;;;23.40;13.47;;;;;;;0.76;100.00;97835.81;4967916;28;20035;-58
2021/12/28 03:53:54;;;;;;;23.67;14.13;;;;;;;0.77;100.00;97829.06;4971167;28;20037;-59
2021/12/28 03:56:20;;;;;;;31.57;14.60;;;;;;;0.77;100.00;97824.00;4974362;28;20038;-60
2021/12/28 03:58:47;;;;;;;26.40;13.60;;;;;;;0.81;100.00;97825.72;4974843;28;20030;-60
2021/12/28 04:01:19;;;;;;;23.30;13.93;;;;;;;0.80;100.00;97829.94;4969146;28;20085;-60
2021/12/28 04:03:44;;;;;;;24.40;13.80;;;;;;;0.77;100.00;97829.06;4978737;28;20030;-61
2021/12/28 04:06:10;;;;;;;26.10;14.37;;;;;;;0.77;100.00;97841.66;4972202;28;20082;-58
2021/12/28 04:08:38;;;;;;;26.37;14.97;;;;;;;0.76;100.00;97837.47;4971976;28;20414;-60
2021/12/28 04:11:25;;;;;;;23.73;13.73;;;;;;;0.72;100.00;97828.19;4972630;28;20026;-60
2021/12/28 04:13:53;;;;;;;25.03;13.60;;;;;;;0.73;100.00;97838.28;4971793;28;20042;-59
2021/12/28 04:16:20;;;;;;;28.50;15.17;;;;;;;0.71;100.00;97845.00;4973099;28;20023;-59
2021/12/28 04:18:46;;;;;;;26.17;13.47;;;;;;;0.71;100.00;97842.50;4972256;28;20038;-58
2021/12/28 04:21:12;;;;;;;23.23;13.03;;;;;;;0.69;100.00;97845.81;4974786;28;20031;-60
2021/12/28 04:23:38;;;;;;;21.57;12.90;;;;;;;0.64;100.00;97852.50;4971547;28;20153;-59
2021/12/28 04:26:06;;;;;;;23.03;13.73;;;;;;;0.62;100.00;97847.47;4972517;28;20173;-60
2021/12/28 04:28:32;;;;;;;24.73;14.13;;;;;;;0.61;100.00;97840.72;4973002;28;20390;-58
2021/12/28 04:30:57;;;;;;;23.20;13.17;;;;;;;0.63;100.00;97844.13;4969814;28;20030;-58
2021/12/28 04:33:23;;;;;;;29.07;16.17;;;;;;;0.63;100.00;97841.59;4972988;28;20108;-59
2021/12/28 04:35:49;;;;;;;23.80;12.77;;;;;;;0.64;100.00;97844.94;4964489;28;20495;-60
2021/12/28 04:38:15;;;;;;;27.13;13.60;;;;;;;0.69;100.00;97845.81;4968300;28;20037;-58
2021/12/28 04:40:40;;;;;;;21.83;13.00;;;;;;;0.64;100.00;97850.81;4968906;28;20248;-60
2021/12/28 04:43:08;;;;;;;21.30;12.67;;;;;;;0.63;100.00;97845.78;4974204;28;20045;-59
2021/12/28 04:45:36;;;;;;;22.57;13.47;;;;;;;0.63;100.00;97849.16;4983849;28;20089;-59
2021/12/28 04:48:02;;;;;;;22.57;14.00;;;;;;;0.62;100.00;97849.97;4968776;28;20045;-60
2021/12/28 04:50:27;;;;;;;28.40;14.17;;;;;;;0.59;100.00;97849.97;4972203;28;20117;-58
2021/12/28 04:52:53;;;;;;;23.57;13.90;;;;;;;0.54;100.00;97851.59;4974285;28;20114;-60
2021/12/28 04:55:19;;;;;;;21.60;12.90;;;;;;;0.55;100.00;97848.25;4973675;28;20493;-57
2021/12/28 04:57:46;;;;;;;22.47;13.43;;;;;;;0.58;100.00;97843.22;4969425;28;20034;-59
2021/12/28 05:00:23;;;;;;;27.17;15.60;;;;;;;0.64;100.00;97844.94;4968927;28;20050;-59
2021/12/28 05:02:50;;;;;;;25.47;13.67;;;;;;;0.65;100.00;97850.00;4970958;28;20030;-59
2021/12/28 05:05:16;;;;;;;22.40;13.60;;;;;;;0.64;100.00;97852.50;4970834;28;20043;-60
2021/12/28 05:07:41;;;;;;;24.83;13.90;;;;;;;0.64;100.00;97855.88;4968340;28;20038;-59
2021/12/28 05:10:09;;;;;;;26.33;14.60;;;;;;;0.69;100.00;97850.84;4969847;28;20141;-59
2021/12/28 05:12:35;;;;;;;24.93;14.30;;;;;;;0.68;100.00;97846.66;4973665;28;20036;-59
2021/12/28 05:15:00;;;;;;;22.70;13.87;;;;;;;0.71;100.00;97851.72;4970067;28;20038;-58
2021/12/28 05:17:28;;;;;;;22.87;13.53;;;;;;;0.77;100.00;97847.56;4967607;28;20082;-58
2021/12/28 05:19:55;;;;;;;26.63;15.20;;;;;;;0.80;100.00;97850.13;4973209;28;20100;-59
2021/12/28 05:22:20;;;;;;;27.77;14.30;;;;;;;0.80;100.00;97845.06;4973525;28;20130;-60
2021/12/28 05:24:46;;;;;;;27.70;14.87;;;;;;;0.82;100.00;97855.16;4969525;28;20035;-59
2021/12/28 05:27:12;;;;;;;25.23;14.50;;;;;;;0.83;100.00;97860.22;4970143;28;20094;-60
2021/12/28 05:29:37;;;;;;;29.07;14.33;;;;;;;0.85;100.00;97852.66;4978536;28;20037;-60
2021/12/28 05:32:03;;;;;;;23.13;13.70;;;;;;;0.87;100.00;97858.56;4972155;28;20117;-60
2021/12/28 05:34:28;;;;;;;20.43;13.50;;;;;;;0.80;100.00;97849.28;4973745;28;20404;-60
2021/12/28 05:36:54;;;;;;;26.47;14.90;;;;;;;0.84;100.00;97854.34;4970032;28;20108;-59
2021/12/28 05:39:19;;;;;;;22.03;14.13;;;;;;;0.81;100.00;97859.34;4968522;28;20553;-59
2021/12/28 05:41:45;;;;;;;22.70;14.70;;;;;;;0.83;100.00;97860.22;4971877;28;20110;-58
2021/12/28 05:44:10;;;;;;;27.13;15.17;;;;;;;0.78;100.00;97851.78;4970548;28;20519;-59
2021/12/28 05:46:36;;;;;;;22.93;13.13;;;;;;;0.80;100.00;97849.28;4966108;28;20047;-59
2021/12/28 05:49:02;;;;;;;25.67;15.20;;;;;;;0.79;100.00;97855.16;4976094;28;20381;-59
2021/12/28 05:51:27;;;;;;;27.67;14.50;;;;;;;0.72;100.00;97850.91;4976385;28;20178;-59
2021/12/28 05:53:53;;;;;;;25.83;14.47;;;;;;;0.72;100.00;97856.75;4967132;28;20558;-59
2021/12/28 05:56:18;;;;;;;24.03;14.57;;;;;;;0.70;100.00;97855.06;4969895;28;20616;-60
2021/12/28 05:58:43;;;;;;;28.50;15.23;;;;;;;0.61;100.00;97853.34;4975567;28;20022;-58
2021/12/28 06:01:09;;;;;;;26.20;14.60;;;;;;;0.47;100.00;97859.94;4974355;28;20037;-59
2021/12/28 06:03:34;;;;;;;29.87;16.00;;;;;;;0.51;100.00;97853.25;4970485;28;20038;-59
2021/12/28 06:06:00;;;;;;;27.73;14.77;;;;;;;0.54;100.00;97858.31;4968245;28;20037;-56
2021/12/28 06:08:25;;;;;;;26.60;15.70;;;;;;;0.58;100.00;97860.03;4970422;28;20484;-59
2021/12/28 06:10:51;;;;;;;26.60;16.10;;;;;;;0.57;100.00;97861.72;4975218;28;20058;-59
2021/12/28 06:13:17;;;;;;;26.40;14.50;;;;;;;0.65;100.00;97869.31;4969419;28;20038;-59
2021/12/28 06:15:43;;;;;;;25.80;14.50;;;;;;;0.67;100.00;97867.69;4966178;28;20023;-59
2021/12/28 06:18:08;;;;;;;27.43;16.00;;;;;;;0.73;100.00;97866.03;4971531;28;20118;-60
2021/12/28 06:20:33;;;;;;;26.37;14.10;;;;;;;0.74;100.00;97866.88;4972832;28;20030;-58
2021/12/28 06:22:59;;;;;;;31.73;15.43;;;;;;;0.70;100.00;97863.50;4968262;28;20031;-59
2021/12/28 06:25:24;;;;;;;30.20;15.87;;;;;;;0.74;100.00;97861.84;4969148;28;20033;-60
2021/12/28 06:27:50;;;;;;;31.50;16.40;;;;;;;0.71;100.00;97856.78;4974198;28;20108;-59
2021/12/28 06:30:16;;;;;;;26.70;15.10;;;;;;;0.73;100.00;97855.94;4970759;28;20125;-60
2021/12/28 06:32:41;;;;;;;29.17;16.53;;;;;;;0.70;100.00;97852.56;4965291;28;20042;-60
2021/12/28 06:35:08;;;;;;;33.10;17.03;;;;;;;0.69;100.00;97856.75;4971600;28;20145;-60
2021/12/28 06:37:33;;;;;;;27.83;16.27;;;;;;;0.64;100.00;97858.38;4972208;28;20877;-60
2021/12/28 06:39:58;;;;;;;32.00;17.43;;;;;;;0.59;100.00;97844.06;4966945;28;20296;-59
2021/12/28 06:42:24;;;;;;;33.73;17.97;;;;;;;0.65;100.00;97831.50;4972933;28;20027;-60
2021/12/28 06:44:52;;;;;;;32.50;17.80;;;;;;;0.66;100.00;97841.59;4968463;28;20528;-60
2021/12/28 06:47:17;;;;;;;28.80;14.80;;;;;;;0.57;100.00;97841.53;4967318;28;20509;-59
2021/12/28 06:49:44;;;;;;;31.90;17.27;;;;;;;0.58;100.00;97838.19;4971081;28;20045;-59
2021/12/28 06:52:10;;;;;;;28.33;16.27;;;;;;;0.58;100.00;97837.34;4967950;28;20291;-60
2021/12/28 06:54:37;;;;;;;25.57;15.83;;;;;;;0.59;100.00;97834.84;4972900;28;20088;-60
2021/12/28 06:57:08;;;;;;;26.33;15.17;;;;;;;0.60;100.00;97831.47;4975777;28;20325;-60
2021/12/28 06:59:37;;;;;;;27.83;14.67;;;;;;;0.61;100.00;97839.88;4972497;28;20154;-60
2021/12/28 07:02:04;;;;;;;31.60;16.63;;;;;;;0.68;100.00;97844.16;4952235;28;20101;-57
2021/12/28 07:04:29;;;;;;;28.90;17.10;;;;;;;0.73;100.00;97850.03;4980638;28;20038;-60
2021/12/28 07:06:54;;;;;;;26.10;16.80;;;;;;;0.74;100.00;97851.75;4975564;28;20054;-57
2021/12/28 07:09:20;;;;;;;29.07;17.17;;;;;;;0.77;100.00;97850.06;4969016;28;20693;-59
2021/12/28 07:11:46;;;;;;;30.13;16.73;;;;;;;0.76;100.00;97840.84;4973124;28;20034;-59
2021/12/28 07:14:12;;;;;;;30.77;17.43;;;;;;;0.75;100.00;97829.06;4974085;28;20035;-59
2021/12/28 07:16:37;;;;;;;31.47;17.07;;;;;;;0.76;100.00;97825.72;4972446;28;20229;-57
2021/12/28 07:19:03;;;;;;;34.53;17.20;;;;;;;0.79;100.00;97820.69;4973854;28;20509;-59
2021/12/28 07:21:28;;;;;;;35.80;19.00;;;;;;;0.79;100.00;97835.81;4974985;28;20066;-59
2021/12/28 07:23:54;;;;;;;32.20;17.70;;;;;;;0.82;100.00;97847.59;4974620;28;20098;-58
2021/12/28 07:26:19;;;;;;;37.30;18.50;;;;;;;0.82;100.00;97847.59;4977421;28;20018;-58
2021/12/28 07:28:45;;;;;;;32.00;17.07;;;;;;;0.80;100.00;97846.75;4972215;28;20031;-59
2021/12/28 07:31:10;;;;;;;32.40;17.17;;;;;;;0.88;100.00;97852.69;4965885;28;20041;-60
2021/12/28 07:33:35;;;;;;;39.30;18.23;;;;;;;0.91;100.00;97856.06;4972366;28;20657;-59
2021/12/28 07:36:01;;;;;;;36.03;18.27;;;;;;;0.85;100.00;97857.69;4972292;28;20046;-59
2021/12/28 07:38:26;;;;;;;32.57;18.20;;;;;;;0.77;100.00;97864.38;4969645;28;20101;-58
2021/12/28 07:40:52;;;;;;;35.93;17.40;;;;;;;0.77;100.00;97865.22;4972189;28;20453;-58
2021/12/28 07:43:17;;;;;;;31.57;18.47;;;;;;;0.83;100.00;97856.84;4976165;28;20092;-59
2021/12/28 07:45:42;;;;;;;34.73;17.73;;;;;;;0.81;100.00;97863.56;4976378;28;20023;-59
2021/12/28 07:48:08;;;;;;;32.97;17.37;;;;;;;0.90;100.00;97858.56;4972872;28;20076;-59
2021/12/28 07:50:34;;;;;;;34.77;17.33;;;;;;;0.95;100.00;97864.50;4969271;28;20030;-57
2021/12/28 07:52:59;;;;;;;31.93;18.20;;;;;;;1.01;100.00;97863.69;4975472;28;20477;-60
2021/12/28 07:55:25;;;;;;;31.53;17.30;;;;;;;1.06;100.00;97855.31;4974941;28;20030;-58
2021/12/28 07:57:50;;;;;;;32.70;18.70;;;;;;;1.06;100.00;97869.63;4968323;28;20030;-60
2021/12/28 08:00:19;;;;;;;33.83;16.90;;;;;;;1.03;100.00;97869.59;4968335;28;20501;-60
2021/12/28 08:02:45;;;;;;;35.00;18.13;;;;;;;1.08;100.00;97881.41;4970938;28;20042;-59
2021/12/28 08:05:13;;;;;;;40.20;20.53;;;;;;;1.04;100.00;97871.28;4969397;28;20553;-60
2021/12/28 08:07:40;;;;;;;34.57;20.10;;;;;;;1.05;100.00;97878.03;4968527;28;20108;-59
2021/12/28 08:10:06;;;;;;;28.60;17.60;;;;;;;1.08;100.00;97881.41;4970826;28;20061;-60
2021/12/28 08:12:33;;;;;;;33.93;18.17;;;;;;;1.14;100.00;97880.59;4972617;28;20050;-59
2021/12/28 08:14:59;;;;;;;34.20;18.53;;;;;;;1.16;100.00;97878.94;4972450;28;20429;-60
2021/12/28 08:17:26;;;;;;;31.53;19.57;;;;;;;1.15;100.00;97872.19;4969118;28;20027;-59
2021/12/28 08:19:52;;;;;;;36.07;21.20;;;;;;;1.14;100.00;97868.84;4971497;28;20022;-59
2021/12/28 08:22:17;;;;;;;31.27;19.03;;;;;;;1.12;100.00;97864.59;4969269;28;20383;-58
2021/12/28 08:24:43;;;;;;;34.37;19.57;;;;;;;1.22;100.00;97872.25;4969879;28;20022;-60
2021/12/28 08:27:08;;;;;;;36.93;19.90;;;;;;;1.26;100.00;97868.06;4968191;28;20026;-60
2021/12/28 08:29:34;;;;;;;37.27;17.80;;;;;;;1.23;100.00;97868.03;4969180;28;20034;-57
2021/12/28 08:31:59;;;;;;;31.73;17.63;;;;;;;1.13;100.00;97869.66;4970519;28;20129;-60
2021/12/28 08:34:25;;;;;;;32.63;18.60;;;;;;;1.28;100.00;97868.88;4967032;28;20069;-59
2021/12/28 08:36:50;;;;;;;32.53;18.50;;;;;;;1.39;100.00;97874.84;4967330;28;20558;-60
2021/12/28 08:39:15;;;;;;;38.50;20.83;;;;;;;1.39;100.00;97869.81;4970213;28;20512;-60
2021/12/28 08:41:41;;;;;;;36.20;20.03;;;;;;;1.31;100.00;97863.88;4969819;28;20033;-60
2021/12/28 08:44:06;;;;;;;38.33;20.57;;;;;;;1.30;100.00;97864.72;4966009;28;20291;-59
2021/12/28 08:46:35;;;;;;;40.80;21.37;;;;;;;1.35;100.00;97858.84;4968594;28;20443;-58
2021/12/28 08:49:01;;;;;;;43.20;22.33;;;;;;;1.39;100.00;97869.81;4969825;28;20381;-59
2021/12/28 08:51:27;;;;;;;41.87;23.50;;;;;;;1.36;100.00;97863.03;4970951;28;20035;-60
2021/12/28 08:53:52;;;;;;;42.77;20.50;;;;;;;1.43;100.00;97858.03;4967307;28;20023;-58
2021/12/28 08:56:18;;;;;;;39.80;20.30;;;;;;;1.54;100.00;97852.19;4968076;28;20037;-61
2021/12/28 08:58:43;;;;;;;38.17;20.87;;;;;;;1.60;100.00;97849.69;4969930;28;20061;-61
2021/12/28 09:01:09;;;;;;;36.70;20.90;;;;;;;1.77;100.00;97858.19;4969926;28;20107;-59
2021/12/28 09:03:35;;;;;;;38.73;20.33;;;;;;;1.81;100.00;97852.28;4965917;28;20155;-59
2021/12/28 09:06:04;;;;;;;37.57;21.60;;;;;;;1.75;100.00;97846.34;4966476;28;20089;-59
2021/12/28 09:08:29;;;;;;;41.03;21.50;;;;;;;1.80;100.00;97843.00;4967952;28;20037;-60
2021/12/28 09:10:54;;;;;;;46.00;22.00;;;;;;;1.82;100.00;97833.72;4970095;28;20414;-62
2021/12/28 09:13:20;;;;;;;41.97;20.60;;;;;;;1.83;100.00;97834.59;4975541;28;20573;-62
2021/12/28 09:15:46;;;;;;;43.50;20.60;;;;;;;1.90;100.00;97840.50;4969338;28;20146;-62
2021/12/28 09:18:11;;;;;;;45.27;22.60;;;;;;;1.96;100.00;97826.19;4967057;28;20089;-62
2021/12/28 09:20:37;;;;;;;41.97;21.73;;;;;;;2.02;100.00;97828.75;4968942;28;20082;-62
2021/12/28 09:23:03;;;;;;;42.83;20.90;;;;;;;2.12;100.00;97827.09;4971128;28;20087;-62
2021/12/28 09:25:28;;;;;;;40.10;21.47;;;;;;;2.10;100.00;97819.47;4971746;28;20649;-62
2021/12/28 09:27:55;;;;;;;48.90;22.10;;;;;;;2.12;100.00;97822.84;4967085;28;20136;-62
2021/12/28 09:30:20;;;;;;;52.03;21.83;;;;;;;2.16;100.00;97813.59;4969787;28;20393;-61
2021/12/28 09:32:47;;;;;;;46.57;22.87;;;;;;;2.20;100.00;97822.88;4972485;28;20029;-64
2021/12/28 09:35:14;;;;;;;49.23;21.67;;;;;;;2.23;100.00;97826.25;4970584;28;20026;-62
2021/12/28 09:37:39;;;;;;;46.73;21.80;;;;;;;2.44;100.00;97816.97;4968682;28;20030;-61
2021/12/28 09:40:08;;;;;;;39.30;19.70;;;;;;;2.50;100.00;97800.13;4970810;28;20563;-62
2021/12/28 09:42:33;;;;;;;42.97;20.27;;;;;;;2.52;100.00;97790.81;4971416;28;20026;-61
2021/12/28 09:44:59;;;;;;;34.13;18.17;;;;;;;2.59;100.00;97789.97;4968232;28;20097;-61
2021/12/28 09:47:25;;;;;;;38.07;16.73;;;;;;;2.65;100.00;97782.38;4968227;28;20042;-61
2021/12/28 09:49:50;;;;;;;36.67;17.83;;;;;;;2.74;100.00;97784.06;4969726;28;20038;-61
2021/12/28 09:52:17;;;;;;;34.90;16.20;;;;;;;2.78;100.00;97785.72;4970642;28;20085;-61
2021/12/28 09:54:43;;;;;;;33.70;16.83;;;;;;;2.72;100.00;97784.03;4969833;28;20031;-62
2021/12/28 09:57:09;;;;;;;28.87;14.13;;;;;;;2.72;100.00;97781.50;4966376;28;20566;-61
2021/12/28 09:59:35;;;;;;;34.43;15.30;;;;;;;2.70;100.00;97788.28;4970691;28;20101;-60
2021/12/28 10:02:08;;;;;;;32.17;15.50;;;;;;;2.51;100.00;97775.63;4970550;28;20540;-60
2021/12/28 10:04:35;;;;;;;33.27;16.57;;;;;;;2.48;100.00;97775.66;4968295;28;20026;-61
2021/12/28 10:07:19;;;;;;;39.20;17.80;;;;;;;2.56;100.00;97779.84;4969584;28;20054;-61
2021/12/28 10:09:45;;;;;;;38.97;18.70;;;;;;;2.54;100.00;97779.03;4970386;28;20054;-61
2021/12/28 10:12:10;;;;;;;37.80;18.27;;;;;;;2.69;100.00;97780.69;4970267;28;20677;-63
2021/12/28 10:14:36;;;;;;;46.07;21.00;;;;;;;2.68;100.00;97769.72;4968164;28;20042;-61
2021/12/28 10:17:06;;;;;;;45.93;18.40;;;;;;;2.49;100.00;97777.34;4968140;28;20026;-61
2021/12/28 10:19:43;;;;;;;41.53;18.87;;;;;;;2.59;100.00;97779.03;4970794;28;20061;-59
2021/12/28 10:22:21;;;;;;;51.97;21.30;;;;;;;2.69;100.00;97776.47;4968808;28;20038;-61
2021/12/28 10:24:49;;;;;;;53.67;21.93;;;;;;;2.65;100.00;97769.72;4966281;28;20037;-60
2021/12/28 10:27:17;;;;;;;51.73;24.17;;;;;;;2.68;100.00;97763.81;4970542;28;20026;-61
2021/12/28 10:29:43;;;;;;;42.80;19.23;;;;;;;2.54;100.00;97760.47;4970357;28;20045;-60
2021/12/28 10:32:18;;;;;;;40.47;18.37;;;;;;;2.61;100.00;97757.94;4969177;28;20801;-60
2021/12/28 10:34:49;;;;;;;40.03;16.10;;;;;;;2.61;100.00;97757.09;4967577;28;20661;-60
2021/12/28 10:37:18;;;;;;;38.47;17.63;;;;;;;2.48;100.00;97758.78;4969405;28;20528;-61
2021/12/28 10:39:46;;;;;;;38.07;18.53;;;;;;;2.59;100.00;97751.19;4970544;28;20084;-61
2021/12/28 10:42:52;;;;;;;36.53;18.33;;;;;;;2.69;100.00;97760.44;4969705;28;20079;-61
2021/12/28 10:45:22;;;;;;;35.50;16.27;;;;;;;2.45;100.00;97753.75;4968389;28;20038;-61
2021/12/28 10:47:49;;;;;;;38.73;18.37;;;;;;;2.55;100.00;97742.75;4970305;28;20398;-61
2021/12/28 10:50:24;;;;;;;39.60;16.87;;;;;;;2.61;100.00;97740.22;4971249;28;20043;-61
2021/12/28 10:52:59;;;;;;;47.08;18.75;;;;;;;2.57;100.00;97740.22;4972372;28;20062;-61
2021/12/28 10:55:27;;;;;;;44.97;17.30;;;;;;;2.67;100.00;97740.19;4969866;28;20340;-61
2021/12/28 10:57:52;;;;;;;39.93;17.60;;;;;;;2.61;100.00;97740.22;4969661;28;20474;-62
2021/12/28 11:00:34;;;;;;;36.53;16.53;;;;;;;2.68;100.00;97734.28;4955862;28;20077;-61
2021/12/28 11:03:29;;;;;;;38.53;16.30;;;;;;;2.67;100.00;97732.59;4967423;28;20046;-62
2021/12/28 11:05:55;;;;;;;36.17;15.33;;;;;;;2.68;100.00;97726.69;4973093;28;20038;-60
2021/12/28 11:08:24;;;;;;;39.60;19.00;;;;;;;2.67;100.00;97725.00;4971124;28;20030;-61
2021/12/28 11:10:54;;;;;;;34.40;16.03;;;;;;;2.61;100.00;97712.38;4966835;28;20106;-60
2021/12/28 11:13:23;;;;;;;34.77;17.47;;;;;;;2.71;100.00;97716.59;4973074;28;20111;-60
2021/12/28 11:15:49;;;;;;;38.33;17.60;;;;;;;2.76;100.00;97719.94;4974900;28;20508;-61
2021/12/28 11:18:33;;;;;;;43.90;19.13;;;;;;;2.83;100.00;97702.19;4970579;28;20091;-60